createdAt,value
2024-01-22T00:02:07.500Z,100393.22
2024-01-22T00:04:35.249Z,100405.19
2024-01-22T00:07:02.687Z,100390.22
2024-01-22T00:09:30.492Z,100394.47
2024-01-22T00:11:57.909Z,100405.09
2024-01-22T00:14:25.626Z,100398.53
2024-01-22T00:16:52.924Z,100372.38
2024-01-22T00:19:20.686Z,100380.44
2024-01-22T00:21:48.061Z,100378.16
2024-01-22T00:24:15.894Z,100389.63
2024-01-22T00:26:43.252Z,100390.69
2024-01-22T00:29:11.001Z,100397.44
2024-01-22T00:31:38.426Z,100399.97
2024-01-22T00:34:06.163Z,100374.44
2024-01-22T00:36:34.108Z,100360.00
2024-01-22T00:39:01.905Z,100355.44
2024-01-22T00:41:29.341Z,100361.34
2024-01-22T00:43:56.946Z,100361.72
2024-01-22T00:46:24.252Z,100347.38
2024-01-22T00:48:51.994Z,100341.63
2024-01-22T00:51:19.504Z,100364.56
2024-01-22T00:53:47.296Z,100353.28
2024-01-22T00:56:15.159Z,100341.16
2024-01-22T00:58:42.918Z,100326.63
2024-01-22T01:01:10.266Z,100337.81
2024-01-22T01:03:37.995Z,100315.06
2024-01-22T01:06:05.784Z,100318.28
2024-01-22T01:08:33.497Z,100311.19
2024-01-22T01:11:00.878Z,100319.31
2024-01-22T01:13:28.701Z,100310.50
2024-01-22T01:15:56.017Z,100303.00
2024-01-22T01:18:23.717Z,100309.19
2024-01-22T01:20:51.225Z,100296.84
2024-01-22T01:23:18.952Z,100317.50
2024-01-22T01:25:46.420Z,100312.97
2024-01-22T01:28:14.282Z,100316.56
2024-01-22T01:30:41.708Z,100290.03
2024-01-22T01:33:09.638Z,100299.97
2024-01-22T01:35:37.026Z,100299.69
2024-01-22T01:38:04.872Z,100284.13
2024-01-22T01:40:32.174Z,100272.47
2024-01-22T01:42:59.986Z,100263.84
2024-01-22T01:45:27.456Z,100269.13
2024-01-22T01:47:55.462Z,100257.94
2024-01-22T01:50:23.742Z,100251.34
2024-01-22T01:52:52.283Z,100245.91
2024-01-22T01:55:22.588Z,100243.16
2024-01-22T01:57:54.068Z,100242.81
2024-01-22T02:00:28.550Z,100244.88
2024-01-22T02:02:57.564Z,100232.38
2024-01-22T02:05:25.305Z,100239.00
2024-01-22T02:07:53.137Z,100222.31
2024-01-22T02:10:20.521Z,100217.38
2024-01-22T02:12:48.248Z,100202.50
2024-01-22T02:15:15.817Z,100180.50
2024-01-22T02:17:43.699Z,100191.97
2024-01-22T02:20:11.757Z,100197.84
2024-01-22T02:22:39.536Z,100192.91
2024-01-22T02:25:07.703Z,100174.53
2024-01-22T02:27:35.579Z,100200.78
2024-01-22T02:30:02.979Z,100211.97
2024-01-22T02:32:30.817Z,100200.47
2024-01-22T02:34:58.219Z,100198.00
2024-01-22T02:37:25.869Z,100214.28
2024-01-22T02:39:53.259Z,100201.63
2024-01-22T02:42:20.920Z,100171.06
2024-01-22T02:44:48.380Z,100171.09
2024-01-22T02:47:16.018Z,100164.19
2024-01-22T02:49:43.577Z,100173.13
2024-01-22T02:52:11.166Z,100160.94
2024-01-22T02:54:38.780Z,100156.16
2024-01-22T02:57:06.513Z,100151.94
2024-01-22T02:59:37.709Z,100137.56
2024-01-22T03:02:05.705Z,100155.41
2024-01-22T03:04:33.181Z,100140.78
2024-01-22T03:07:01.351Z,100127.16
2024-01-22T03:09:28.794Z,100121.22
2024-01-22T03:11:56.838Z,100111.19
2024-01-22T03:14:24.845Z,100118.75
2024-01-22T03:16:52.566Z,100088.16
2024-01-22T03:19:20.029Z,100100.09
2024-01-22T03:21:48.634Z,100094.16
2024-01-22T03:24:15.987Z,100097.03
2024-01-22T03:26:43.842Z,100092.94
2024-01-22T03:29:11.476Z,100079.03
2024-01-22T03:31:39.414Z,100074.97
2024-01-22T03:34:07.487Z,100059.75
2024-01-22T03:36:37.068Z,100038.50
2024-01-22T03:39:05.473Z,100037.56
2024-01-22T03:41:34.484Z,100036.31
2024-01-22T03:44:04.204Z,100041.88
2024-01-22T03:46:32.241Z,100010.19
2024-01-22T03:48:59.807Z,100029.41
2024-01-22T03:51:27.678Z,100031.31
2024-01-22T03:53:55.132Z,100016.13
2024-01-22T03:56:22.858Z,100021.66
2024-01-22T03:58:50.460Z,100002.91
2024-01-22T04:01:22.945Z,99996.31
2024-01-22T04:03:52.132Z,99986.88
2024-01-22T04:06:20.087Z,99982.50
2024-01-22T04:08:47.639Z,99957.16
2024-01-22T04:11:15.393Z,99954.13
2024-01-22T04:13:43.808Z,99944.97
2024-01-22T04:16:15.217Z,99938.38
2024-01-22T04:18:43.473Z,99944.56
2024-01-22T04:21:12.244Z,99941.56
2024-01-22T04:23:39.883Z,99937.78
2024-01-22T04:26:07.810Z,99933.06
2024-01-22T04:28:35.227Z,99938.50
2024-01-22T04:31:03.002Z,99927.25
2024-01-22T04:33:30.916Z,99941.81
2024-01-22T04:35:58.972Z,99939.69
2024-01-22T04:38:27.493Z,99927.78
2024-01-22T04:40:55.240Z,99923.31
2024-01-22T04:43:22.955Z,99930.75
2024-01-22T04:45:50.884Z,99921.94
2024-01-22T04:48:18.490Z,99912.88
2024-01-22T04:50:46.436Z,99900.09
2024-01-22T04:53:13.841Z,99889.28
2024-01-22T04:55:41.553Z,99880.13
2024-01-22T04:58:08.956Z,99877.28
2024-01-22T05:00:37.096Z,99890.34
2024-01-22T05:03:06.608Z,99892.69
2024-01-22T05:05:35.947Z,99884.56
2024-01-22T05:08:03.684Z,99875.69
2024-01-22T05:10:31.273Z,99856.47
2024-01-22T05:12:58.732Z,99851.88
2024-01-22T05:15:26.857Z,99859.28
2024-01-22T05:17:54.597Z,99833.59
2024-01-22T05:20:22.341Z,99877.88
2024-01-22T05:22:49.618Z,99865.69
2024-01-22T05:25:17.328Z,99876.84
2024-01-22T05:27:48.724Z,99877.69
2024-01-22T05:30:16.715Z,99893.19
2024-01-22T05:32:44.390Z,99871.16
2024-01-22T05:35:13.543Z,99864.00
2024-01-22T05:37:41.015Z,99859.59
2024-01-22T05:40:15.104Z,99848.03
2024-01-22T05:42:43.780Z,99831.19
2024-01-22T05:45:12.258Z,99804.22
2024-01-22T05:47:39.801Z,99794.75
2024-01-22T05:50:08.448Z,99810.19
2024-01-22T05:52:35.770Z,99812.84
2024-01-22T05:55:03.819Z,99802.78
2024-01-22T05:57:31.226Z,99790.16
2024-01-22T05:59:59.103Z,99772.25
2024-01-22T06:02:27.223Z,99777.28
2024-01-22T06:04:54.886Z,99766.38
2024-01-22T06:07:22.346Z,99757.81
2024-01-22T06:09:55.452Z,99762.94
2024-01-22T06:12:29.526Z,99748.03
2024-01-22T06:14:57.357Z,99752.44
2024-01-22T06:17:25.793Z,99760.06
2024-01-22T06:19:53.680Z,99745.88
2024-01-22T06:22:21.275Z,99716.47
2024-01-22T06:24:48.822Z,99740.03
2024-01-22T06:27:16.261Z,99699.22
2024-01-22T06:29:44.168Z,99747.50
2024-01-22T06:32:11.590Z,99748.09
2024-01-22T06:34:39.544Z,99731.56
2024-01-22T06:37:07.146Z,99721.84
2024-01-22T06:39:35.087Z,99731.34
2024-01-22T06:42:02.494Z,99709.25
2024-01-22T06:44:30.317Z,99713.94
2024-01-22T06:46:57.763Z,99725.63
2024-01-22T06:49:25.608Z,99700.47
2024-01-22T06:51:53.198Z,99692.97
2024-01-22T06:54:23.762Z,99680.59
2024-01-22T06:56:51.606Z,99700.72
2024-01-22T06:59:19.947Z,99698.28
2024-01-22T07:01:47.440Z,99677.56
2024-01-22T07:04:15.167Z,99677.22
2024-01-22T07:06:42.808Z,99681.88
2024-01-22T07:09:11.460Z,99674.84
2024-01-22T07:11:38.965Z,99662.00
2024-01-22T07:14:06.638Z,99649.22
2024-01-22T07:16:34.128Z,99669.31
2024-01-22T07:19:01.928Z,99655.00
2024-01-22T07:21:29.454Z,99666.66
2024-01-22T07:23:57.335Z,99659.59
2024-01-22T07:26:24.761Z,99659.09
2024-01-22T07:28:53.224Z,99652.34
2024-01-22T07:31:20.765Z,99648.47
2024-01-22T07:33:48.571Z,99633.16
2024-01-22T07:36:17.879Z,99652.75
2024-01-22T07:38:47.763Z,99627.44
2024-01-22T07:41:15.350Z,99612.19
2024-01-22T07:43:43.388Z,99592.34
2024-01-22T07:46:10.749Z,99597.03
2024-01-22T07:48:38.664Z,99599.72
2024-01-22T07:51:06.610Z,99588.25
2024-01-22T07:53:34.391Z,99590.13
2024-01-22T07:56:01.878Z,99582.66
2024-01-22T07:58:29.665Z,99582.16
2024-01-22T08:00:57.211Z,99570.47
2024-01-22T08:03:25.038Z,99546.81
2024-01-22T08:05:52.701Z,99544.63
2024-01-22T08:08:20.944Z,99526.97
2024-01-22T08:10:48.410Z,99555.03
2024-01-22T08:13:16.758Z,99571.50
2024-01-22T08:15:45.022Z,99571.72
2024-01-22T08:18:12.917Z,99557.84
2024-01-22T08:20:41.269Z,99550.38
2024-01-22T08:23:10.576Z,99525.09
2024-01-22T08:25:38.009Z,99542.47
2024-01-22T08:28:06.111Z,99540.84
2024-01-22T08:30:33.823Z,99533.78
2024-01-22T08:33:01.813Z,99514.66
2024-01-22T08:35:29.529Z,99502.59
2024-01-22T08:37:57.424Z,99511.72
2024-01-22T08:40:24.996Z,99506.78
2024-01-22T08:42:55.297Z,99497.19
2024-01-22T08:45:23.751Z,99484.47
2024-01-22T08:47:52.689Z,99466.25
2024-01-22T08:50:22.504Z,99466.28
2024-01-22T08:52:51.639Z,99472.31
2024-01-22T08:55:19.995Z,99452.22
2024-01-22T08:57:47.870Z,99449.91
2024-01-22T09:00:16.058Z,99448.66
2024-01-22T09:02:44.552Z,99447.19
2024-01-22T09:05:13.277Z,99446.53
2024-01-22T09:07:41.662Z,99472.34
2024-01-22T09:10:10.516Z,99468.59
2024-01-22T09:12:38.700Z,99453.03
2024-01-22T09:15:07.122Z,99447.53
2024-01-22T09:17:35.252Z,99460.84
2024-01-22T09:20:02.834Z,99455.38
2024-01-22T09:22:30.506Z,99466.06
2024-01-22T09:24:57.897Z,99451.16
2024-01-22T09:27:26.457Z,99443.16
2024-01-22T09:29:53.863Z,99451.56
2024-01-22T09:32:21.781Z,99436.66
2024-01-22T09:34:49.196Z,99408.94
2024-01-22T09:37:17.012Z,99401.00
2024-01-22T09:39:45.796Z,99392.78
2024-01-22T09:42:18.724Z,99385.97
2024-01-22T09:44:48.304Z,99380.47
2024-01-22T09:47:16.561Z,99388.31
2024-01-22T09:49:44.191Z,99366.03
2024-01-22T09:52:19.668Z,99364.78
2024-01-22T09:54:48.340Z,99363.31
2024-01-22T09:57:19.852Z,99351.94
2024-01-22T09:59:53.063Z,99359.53
2024-01-22T10:02:22.784Z,99348.19
2024-01-22T10:04:50.896Z,99346.25
2024-01-22T10:07:19.720Z,99342.34
2024-01-22T10:09:48.427Z,99344.88
2024-01-22T10:12:16.295Z,99326.56
2024-01-22T10:14:43.788Z,99327.84
2024-01-22T10:17:21.958Z,99320.28
2024-01-22T10:19:51.139Z,99311.97
2024-01-22T10:22:25.460Z,99302.19
2024-01-22T10:25:03.003Z,99300.09
2024-01-22T10:27:31.737Z,99280.00
2024-01-22T10:30:11.151Z,99295.78
2024-01-22T10:32:39.537Z,99294.16
2024-01-22T10:35:22.941Z,99281.28
2024-01-22T10:38:14.071Z,99273.75
2024-01-22T10:40:41.886Z,99268.13
2024-01-22T10:43:23.643Z,99267.56
2024-01-22T10:45:53.202Z,99284.31
2024-01-22T10:48:37.102Z,99246.75
2024-01-22T10:51:09.580Z,99237.56
2024-01-22T10:53:39.042Z,99255.81
2024-01-22T10:56:23.713Z,99249.88
2024-01-22T10:58:53.557Z,99244.28
2024-01-22T11:01:25.974Z,99240.72
2024-01-22T11:03:58.540Z,99236.44
2024-01-22T11:06:29.650Z,99219.25
2024-01-22T11:09:01.091Z,99221.59
2024-01-22T11:11:30.097Z,99214.41
2024-01-22T11:14:02.967Z,99218.09
2024-01-22T11:16:31.502Z,99221.34
2024-01-22T11:19:06.144Z,99213.22
2024-01-22T11:21:43.407Z,99214.47
2024-01-22T11:24:15.972Z,99205.22
2024-01-22T11:26:47.286Z,99199.88
2024-01-22T11:29:16.914Z,99200.00
2024-01-22T11:31:45.473Z,99219.38
2024-01-22T11:34:36.298Z,99198.59
2024-01-22T11:37:04.650Z,99194.97
2024-01-22T11:39:45.045Z,99215.47
2024-01-22T11:42:19.164Z,99196.34
2024-01-22T11:44:52.498Z,99190.19
2024-01-22T11:47:22.957Z,99188.47
2024-01-22T11:50:01.200Z,99196.50
2024-01-22T11:52:29.191Z,99194.59
2024-01-22T11:54:59.360Z,99199.28
2024-01-22T11:57:29.613Z,99192.97
2024-01-22T12:00:17.023Z,99184.53
2024-01-22T12:02:48.210Z,99182.03
2024-01-22T12:05:20.955Z,99164.47
2024-01-22T12:07:57.169Z,99187.81
2024-01-22T12:10:28.213Z,99170.66
2024-01-22T12:13:00.467Z,99168.25
2024-01-22T12:15:30.054Z,99165.22
2024-01-22T12:17:58.041Z,99161.81
2024-01-22T12:20:27.028Z,99166.28
2024-01-22T12:22:58.680Z,99165.06
2024-01-22T12:25:39.312Z,99160.16
2024-01-22T12:28:12.593Z,99164.47
2024-01-22T12:30:43.675Z,99160.13
2024-01-22T12:33:26.456Z,99157.75
2024-01-22T12:36:13.348Z,99144.44
2024-01-22T12:38:54.996Z,99143.56
2024-01-22T12:41:24.110Z,99146.66
2024-01-22T12:43:56.385Z,99158.31
2024-01-22T12:46:24.677Z,99144.16
2024-01-22T12:48:56.472Z,99131.53
2024-01-22T12:51:27.378Z,99139.75
2024-01-22T12:53:55.297Z,99137.41
2024-01-22T12:56:23.587Z,99116.91
2024-01-22T12:58:51.029Z,99126.75
2024-01-22T13:01:18.919Z,99128.28
2024-01-22T13:03:46.598Z,99120.28
2024-01-22T13:06:14.461Z,99125.03
2024-01-22T13:08:42.004Z,99118.31
2024-01-22T13:11:10.729Z,99121.81
2024-01-22T13:13:38.348Z,99120.41
2024-01-22T13:16:14.315Z,99122.53
2024-01-22T13:18:46.226Z,99116.63
2024-01-22T13:21:17.288Z,99095.59
2024-01-22T13:23:45.600Z,99086.63
2024-01-22T13:26:13.877Z,99093.38
2024-01-22T13:28:41.374Z,99079.59
2024-01-22T13:31:09.757Z,99099.53
2024-01-22T13:33:41.812Z,99085.75
2024-01-22T13:36:12.929Z,99108.19
2024-01-22T13:38:43.026Z,99089.41
2024-01-22T13:41:11.104Z,99109.03
2024-01-22T13:43:38.516Z,99084.06
2024-01-22T13:46:08.684Z,99084.88
2024-01-22T13:48:36.539Z,99079.13
2024-01-22T13:51:04.549Z,99082.91
2024-01-22T13:53:32.778Z,99079.03
2024-01-22T13:56:00.654Z,99067.03
2024-01-22T13:58:28.204Z,99074.88
2024-01-22T14:00:57.810Z,99060.03
2024-01-22T14:03:25.208Z,99073.22
2024-01-22T14:05:53.241Z,99077.84
2024-01-22T14:08:21.500Z,99073.03
2024-01-22T14:10:49.315Z,99071.25
2024-01-22T14:13:16.946Z,99065.78
2024-01-22T14:15:45.112Z,99080.91
2024-01-22T14:18:12.837Z,99075.03
2024-01-22T14:20:40.791Z,99065.03
2024-01-22T14:23:08.930Z,99071.38
2024-01-22T14:25:37.225Z,99077.13
2024-01-22T14:28:05.215Z,99055.84
2024-01-22T14:30:33.183Z,99071.94
2024-01-22T14:33:01.539Z,99067.75
2024-01-22T14:35:29.614Z,99075.66
2024-01-22T14:37:58.848Z,99064.81
2024-01-22T14:40:26.549Z,99061.22
2024-01-22T14:42:54.135Z,99071.38
2024-01-22T14:45:21.970Z,99077.81
2024-01-22T14:47:49.627Z,99051.41
2024-01-22T14:50:17.534Z,99050.16
2024-01-22T14:52:45.022Z,99070.56
2024-01-22T14:55:12.646Z,99064.41
2024-01-22T14:57:40.682Z,99064.34
2024-01-22T15:00:09.011Z,99057.34
2024-01-22T15:02:36.610Z,99065.47
2024-01-22T15:05:06.088Z,99051.69
2024-01-22T15:07:34.789Z,99053.06
2024-01-22T15:10:02.577Z,99028.22
2024-01-22T15:12:30.073Z,99044.50
2024-01-22T15:14:58.748Z,99042.22
2024-01-22T15:17:26.253Z,99036.63
2024-01-22T15:19:54.515Z,99043.56
2024-01-22T15:22:22.173Z,99049.22
2024-01-22T15:24:49.953Z,99059.56
2024-01-22T15:27:17.645Z,99059.06
2024-01-22T15:29:45.694Z,99046.19
2024-01-22T15:32:13.406Z,99051.00
2024-01-22T15:34:41.390Z,99050.00
2024-01-22T15:37:08.796Z,99051.03
2024-01-22T15:39:40.924Z,99038.13
2024-01-22T15:42:08.788Z,99038.00
2024-01-22T15:44:36.825Z,99052.03
2024-01-22T15:47:04.985Z,99049.44
2024-01-22T15:49:32.779Z,99030.97
2024-01-22T15:52:00.397Z,99048.34
2024-01-22T15:54:28.394Z,99044.66
2024-01-22T15:56:55.915Z,99052.22
2024-01-22T15:59:23.743Z,99042.44
2024-01-22T16:01:52.106Z,99039.31
2024-01-22T16:04:20.121Z,99037.00
2024-01-22T16:06:54.024Z,99035.09
2024-01-22T16:09:30.496Z,99040.50
2024-01-22T16:11:58.233Z,99034.41
2024-01-22T16:14:26.110Z,99033.25
2024-01-22T16:16:53.672Z,99055.44
2024-01-22T16:19:23.005Z,99043.72
2024-01-22T16:21:56.050Z,99058.88
2024-01-22T16:24:24.030Z,99037.84
2024-01-22T16:27:36.656Z,99053.72
2024-01-22T16:30:05.251Z,99045.72
2024-01-22T16:36:14.676Z,99069.66
2024-01-22T16:38:44.856Z,99048.25
2024-01-22T16:43:07.314Z,99056.31
2024-01-22T16:46:43.721Z,99031.78
2024-01-22T16:50:17.797Z,99039.53
2024-01-22T16:52:45.660Z,99043.50
2024-01-22T16:55:13.388Z,99043.06
2024-01-22T16:57:41.330Z,99037.91
2024-01-22T17:00:09.354Z,99056.41
2024-01-22T17:02:37.166Z,99038.16
2024-01-22T17:05:05.006Z,99039.16
2024-01-22T17:07:33.726Z,99045.28
2024-01-22T17:10:01.377Z,99029.34
2024-01-22T17:12:29.328Z,99037.78
2024-01-22T17:14:56.702Z,99036.31
2024-01-22T17:17:24.699Z,99027.88
2024-01-22T17:19:52.213Z,99027.19
2024-01-22T17:22:20.169Z,99023.47
2024-01-22T17:24:48.371Z,99037.50
2024-01-22T17:27:16.579Z,99037.66
2024-01-22T17:29:44.253Z,99027.22
2024-01-22T17:32:11.984Z,99037.63
2024-01-22T17:34:39.732Z,99047.00
2024-01-22T17:37:07.700Z,99051.47
2024-01-22T17:39:35.716Z,99034.94
2024-01-22T17:42:03.762Z,99046.53
2024-01-22T17:44:31.414Z,99035.69
2024-01-22T17:46:59.200Z,99038.31
2024-01-22T17:49:26.899Z,99041.75
2024-01-22T17:51:54.675Z,99036.63
2024-01-22T17:54:22.060Z,99040.66
2024-01-22T17:56:50.655Z,99040.56
2024-01-22T17:59:18.328Z,99046.22
2024-01-22T18:01:45.919Z,99050.38
2024-01-22T18:04:13.473Z,99055.66
2024-01-22T18:06:41.516Z,99051.97
2024-01-22T18:09:09.012Z,99057.19
2024-01-22T18:11:36.992Z,99055.63
2024-01-22T18:14:04.576Z,99060.66
2024-01-22T18:16:32.326Z,99054.41
2024-01-22T18:19:00.775Z,99060.28
2024-01-22T18:21:28.653Z,99033.03
2024-01-22T18:23:56.211Z,99038.78
2024-01-22T18:26:24.009Z,99044.81
2024-01-22T18:28:52.997Z,99035.03
2024-01-22T18:31:20.745Z,99036.41
2024-01-22T18:33:48.311Z,99030.88
2024-01-22T18:36:17.949Z,99031.56
2024-01-22T18:38:45.329Z,99033.31
2024-01-22T18:41:29.162Z,99033.53
2024-01-22T18:43:56.774Z,99027.81
2024-01-22T18:46:24.828Z,99042.25
2024-01-22T18:48:52.721Z,99051.34
2024-01-22T18:51:20.553Z,99051.06
2024-01-22T18:53:48.004Z,99054.09
2024-01-22T18:56:15.750Z,99064.13
2024-01-22T18:58:43.112Z,99059.47
2024-01-22T19:01:10.936Z,99051.44
2024-01-22T19:03:38.422Z,99064.16
2024-01-22T19:06:07.217Z,99065.59
2024-01-22T19:08:35.000Z,99073.06
2024-01-22T19:11:03.379Z,99059.66
2024-01-22T19:13:31.622Z,99062.91
2024-01-22T19:15:59.365Z,99075.81
2024-01-22T19:18:26.984Z,99060.94
2024-01-22T19:20:54.752Z,99061.72
2024-01-22T19:23:22.145Z,99046.31
2024-01-22T19:25:49.868Z,99060.09
2024-01-22T19:28:17.430Z,99055.59
2024-01-22T19:30:45.180Z,99056.25
2024-01-22T19:33:12.724Z,99050.41
2024-01-22T19:35:40.405Z,99047.97
2024-01-22T19:38:07.730Z,99051.44
2024-01-22T19:40:35.698Z,99027.31
2024-01-22T19:43:03.138Z,99042.91
2024-01-22T19:45:31.085Z,99038.19
2024-01-22T19:48:00.459Z,99058.09
2024-01-22T19:50:28.389Z,99037.31
2024-01-22T19:52:57.351Z,99056.69
2024-01-22T19:55:25.169Z,99053.38
2024-01-22T19:57:53.442Z,99058.03
2024-01-22T20:00:21.320Z,99071.34
2024-01-22T20:02:48.882Z,99080.34
2024-01-22T20:05:16.746Z,99085.75
2024-01-22T20:07:46.705Z,99081.88
2024-01-22T20:10:14.494Z,99070.06
2024-01-22T20:12:42.297Z,99078.63
2024-01-22T20:15:10.457Z,99063.13
2024-01-22T20:17:37.980Z,99060.22
2024-01-22T20:20:08.549Z,99051.97
2024-01-22T20:22:36.144Z,99074.59
2024-01-22T20:25:04.067Z,99079.25
2024-01-22T20:27:31.646Z,99088.34
2024-01-22T20:29:59.417Z,99088.16
2024-01-22T20:32:26.867Z,99099.44
2024-01-22T20:34:54.632Z,99109.03
2024-01-22T20:37:22.413Z,99105.22
2024-01-22T20:39:50.802Z,99113.88
2024-01-22T20:42:20.585Z,99112.69
2024-01-22T20:44:49.541Z,99119.56
2024-01-22T20:47:17.261Z,99130.09
2024-01-22T20:49:45.203Z,99117.34
2024-01-22T20:52:12.697Z,99120.78
2024-01-22T20:54:40.783Z,99126.75
2024-01-22T20:57:08.938Z,99111.81
2024-01-22T20:59:37.302Z,99121.34
2024-01-22T21:02:04.793Z,99125.38
2024-01-22T21:04:32.958Z,99113.25
2024-01-22T21:07:00.761Z,99107.59
2024-01-22T21:09:28.623Z,99109.63
2024-01-22T21:11:56.100Z,99120.50
2024-01-22T21:14:24.056Z,99145.31
2024-01-22T21:16:51.820Z,99137.16
2024-01-22T21:19:20.033Z,99141.78
2024-01-22T21:21:47.774Z,99149.28
2024-01-22T21:24:16.661Z,99158.66
2024-01-22T21:26:47.408Z,99147.03
2024-01-22T21:29:16.883Z,99157.09
2024-01-22T21:31:45.408Z,99164.78
2024-01-22T21:34:13.613Z,99147.06
2024-01-22T21:36:41.381Z,99165.06
2024-01-22T21:39:09.789Z,99178.03
2024-01-22T21:41:38.587Z,99162.50
2024-01-22T21:44:06.313Z,99176.59
2024-01-22T21:46:33.669Z,99186.28
2024-01-22T21:49:01.894Z,99196.25
2024-01-22T21:51:29.438Z,99184.56
2024-01-22T21:53:57.129Z,99186.50
2024-01-22T21:56:28.507Z,99191.22
2024-01-22T21:58:57.359Z,99202.09
2024-01-22T22:01:25.073Z,99193.38
2024-01-22T22:03:53.117Z,99194.97
2024-01-22T22:06:22.753Z,99192.16
2024-01-22T22:08:50.694Z,99210.03
2024-01-22T22:11:18.426Z,99204.69
2024-01-22T22:13:46.271Z,99207.38
2024-01-22T22:16:13.764Z,99214.69
2024-01-22T22:18:41.676Z,99226.75
2024-01-22T22:21:09.219Z,99230.25
2024-01-22T22:23:36.993Z,99208.34
2024-01-22T22:26:05.352Z,99214.78
2024-01-22T22:28:33.110Z,99227.84
2024-01-22T22:31:00.689Z,99222.56
2024-01-22T22:33:28.551Z,99222.00
2024-01-22T22:35:56.060Z,99234.81
2024-01-22T22:38:23.735Z,99248.16
2024-01-22T22:40:51.494Z,99263.72
2024-01-22T22:43:21.740Z,99278.66
2024-01-22T22:45:49.116Z,99270.38
2024-01-22T22:48:17.040Z,99269.78
2024-01-22T22:50:44.497Z,99269.66
2024-01-22T22:53:12.097Z,99273.19
2024-01-22T22:55:39.463Z,99272.47
2024-01-22T22:58:07.100Z,99271.91
2024-01-22T23:00:37.320Z,99294.66
2024-01-22T23:03:05.766Z,99301.00
2024-01-22T23:05:33.261Z,99292.72
2024-01-22T23:08:00.918Z,99277.97
2024-01-22T23:10:28.337Z,99300.72
2024-01-22T23:12:55.999Z,99294.97
2024-01-22T23:15:23.314Z,99292.88
2024-01-22T23:17:51.137Z,99303.38
2024-01-22T23:20:20.466Z,99304.50
2024-01-22T23:22:49.011Z,99315.34
2024-01-22T23:25:17.096Z,99319.16
2024-01-22T23:27:45.121Z,99326.97
2024-01-22T23:30:12.959Z,99321.63
2024-01-22T23:32:40.752Z,99331.88
2024-01-22T23:35:08.603Z,99338.19
2024-01-22T23:37:36.263Z,99330.84
2024-01-22T23:40:04.849Z,99328.22
2024-01-22T23:42:33.300Z,99322.47
2024-01-22T23:45:01.428Z,99320.63
2024-01-22T23:47:29.100Z,99317.81
2024-01-22T23:49:57.030Z,99317.13
2024-01-22T23:52:24.840Z,99322.19
2024-01-22T23:54:53.081Z,99321.25
2024-01-22T23:57:20.971Z,99329.53
2024-01-22T23:59:48.992Z,99336.84
